sensor_id;sensor_type;location;lat;lon;timestamp;P1;durP1;ratioP1;P2;durP2;ratioP2
5403;SDS011;2725;51.054;6.948;2022-09-04T00:00:06;1.9;;;1.4;;
5403;SDS011;2725;51.054;6.948;2022-09-04T00:05:07;2.1;;;1.4;;
5403;SDS011;2725;51.054;6.948;2022-09-04T00:10:11;2.1;;;1.4;;
5403;SDS011;2725;51.054;6.948;2022-09-04T00:15:05;2.1;;;1.4;;
5403;SDS011;2725;51.054;6.948;2022-09-04T00:20:04;2.1;;;1.4;;
5403;SDS011;2725;51.054;6.948;2022-09-04T00:25:04;2.0;;;1.3;;
5403;SDS011;2725;51.054;6.948;2022-09-04T00:30:05;2.0;;;1.3;;
5403;SDS011;2725;51.054;6.948;2022-09-04T00:35:07;1.3;;;1.1;;
5403;SDS011;2725;51.054;6.948;2022-09-04T00:40:04;1.3;;;1.1;;
5403;SDS011;2725;51.054;6.948;2022-09-04T00:45:06;1.9;;;1.4;;
5403;SDS011;2725;51.054;6.948;2022-09-04T00:55:06;1.2;;;1.1;;
5403;SDS011;2725;51.054;6.948;2022-09-04T01:00:11;1.2;;;1.1;;
5403;SDS011;2725;51.054;6.948;2022-09-04T01:10:07;1.5;;;1.2;;
5403;SDS011;2725;51.054;6.948;2022-09-04T01:16:10;1.8;;;1.2;;
5403;SDS011;2725;51.054;6.948;2022-09-04T01:26:12;1.4;;;1.2;;
5403;SDS011;2725;51.054;6.948;2022-09-04T01:30:06;1.4;;;1.2;;
5403;SDS011;2725;51.054;6.948;2022-09-04T01:35:05;1.4;;;1.2;;
5403;SDS011;2725;51.054;6.948;2022-09-04T01:40:48;1.4;;;1.2;;
5403;SDS011;2725;51.054;6.948;2022-09-04T01:45:02;1.4;;;1.2;;
5403;SDS011;2725;51.054;6.948;2022-09-04T01:50:02;1.4;;;1.2;;
5403;SDS011;2725;51.054;6.948;2022-09-04T01:55:17;2.1;;;1.4;;
5403;SDS011;2725;51.054;6.948;2022-09-04T02:00:10;2.1;;;1.4;;
5403;SDS011;2725;51.054;6.948;2022-09-04T02:05:37;2.0;;;1.3;;
5403;SDS011;2725;51.054;6.948;2022-09-04T02:10:06;2.0;;;1.3;;
5403;SDS011;2725;51.054;6.948;2022-09-04T02:15:05;2.5;;;1.4;;
5403;SDS011;2725;51.054;6.948;2022-09-04T02:20:06;2.5;;;1.4;;
5403;SDS011;2725;51.054;6.948;2022-09-04T02:25:08;2.1;;;1.3;;
5403;SDS011;2725;51.054;6.948;2022-09-04T02:30:06;2.1;;;1.3;;
5403;SDS011;2725;51.054;6.948;2022-09-04T02:35:12;2.7;;;1.4;;
5403;SDS011;2725;51.054;6.948;2022-09-04T02:40:05;2.7;;;1.4;;
5403;SDS011;2725;51.054;6.948;2022-09-04T02:55:07;1.7;;;1.4;;
5403;SDS011;2725;51.054;6.948;2022-09-04T03:00:03;1.7;;;1.4;;
5403;SDS011;2725;51.054;6.948;2022-09-04T03:05:36;1.7;;;1.4;;
5403;SDS011;2725;51.054;6.948;2022-09-04T03:10:05;1.7;;;1.4;;
5403;SDS011;2725;51.054;6.948;2022-09-04T03:20:03;2.9;;;1.6;;
5403;SDS011;2725;51.054;6.948;2022-09-04T03:30:04;1.9;;;1.4;;
5403;SDS011;2725;51.054;6.948;2022-09-04T03:35:05;1.9;;;1.5;;
5403;SDS011;2725;51.054;6.948;2022-09-04T03:40:20;1.9;;;1.5;;
5403;SDS011;2725;51.054;6.948;2022-09-04T03:45:06;2.0;;;1.5;;
5403;SDS011;2725;51.054;6.948;2022-09-04T03:50:06;2.0;;;1.5;;
5403;SDS011;2725;51.054;6.948;2022-09-04T03:55:38;1.5;;;1.2;;
5403;SDS011;2725;51.054;6.948;2022-09-04T04:00:04;1.5;;;1.2;;
5403;SDS011;2725;51.054;6.948;2022-09-04T04:10:22;1.5;;;1.3;;
5403;SDS011;2725;51.054;6.948;2022-09-04T04:15:04;1.5;;;1.2;;
5403;SDS011;2725;51.054;6.948;2022-09-04T04:20:40;1.5;;;1.2;;
5403;SDS011;2725;51.054;6.948;2022-09-04T04:25:04;1.3;;;1.1;;
5403;SDS011;2725;51.054;6.948;2022-09-04T04:30:17;1.3;;;1.1;;
5403;SDS011;2725;51.054;6.948;2022-09-04T04:35:11;1.4;;;1.0;;
5403;SDS011;2725;51.054;6.948;2022-09-04T04:40:06;1.4;;;1.0;;
5403;SDS011;2725;51.054;6.948;2022-09-04T04:45:45;1.4;;;1.0;;
5403;SDS011;2725;51.054;6.948;2022-09-04T04:55:37;1.2;;;1.1;;
5403;SDS011;2725;51.054;6.948;2022-09-04T05:00:10;1.2;;;1.1;;
5403;SDS011;2725;51.054;6.948;2022-09-04T05:10:07;1.3;;;1.2;;
5403;SDS011;2725;51.054;6.948;2022-09-04T05:15:06;1.1;;;1.0;;
5403;SDS011;2725;51.054;6.948;2022-09-04T05:20:35;1.1;;;1.0;;
5403;SDS011;2725;51.054;6.948;2022-09-04T05:25:08;1.3;;;1.0;;
5403;SDS011;2725;51.054;6.948;2022-09-04T05:30:05;1.3;;;1.0;;
5403;SDS011;2725;51.054;6.948;2022-09-04T05:35:05;1.3;;;1.0;;
5403;SDS011;2725;51.054;6.948;2022-09-04T05:40:05;1.3;;;1.0;;
5403;SDS011;2725;51.054;6.948;2022-09-04T05:45:05;1.1;;;1.0;;
5403;SDS011;2725;51.054;6.948;2022-09-04T05:50:13;1.1;;;1.0;;
5403;SDS011;2725;51.054;6.948;2022-09-04T05:55:08;1.3;;;1.1;;
5403;SDS011;2725;51.054;6.948;2022-09-04T06:00:03;1.3;;;1.1;;
5403;SDS011;2725;51.054;6.948;2022-09-04T06:05:12;1.3;;;1.2;;
5403;SDS011;2725;51.054;6.948;2022-09-04T06:10:05;1.3;;;1.2;;
5403;SDS011;2725;51.054;6.948;2022-09-04T06:20:22;1.4;;;1.3;;
5403;SDS011;2725;51.054;6.948;2022-09-04T06:30:04;1.3;;;1.2;;
5403;SDS011;2725;51.054;6.948;2022-09-04T06:35:22;1.7;;;1.3;;
5403;SDS011;2725;51.054;6.948;2022-09-04T06:40:10;1.7;;;1.3;;
5403;SDS011;2725;51.054;6.948;2022-09-04T06:46:27;1.6;;;1.4;;
5403;SDS011;2725;51.054;6.948;2022-09-04T07:00:06;3.1;;;2.4;;
5403;SDS011;2725;51.054;6.948;2022-09-04T07:05:36;3.1;;;2.4;;
5403;SDS011;2725;51.054;6.948;2022-09-04T07:10:07;3.1;;;2.4;;
5403;SDS011;2725;51.054;6.948;2022-09-04T07:15:37;2.7;;;1.8;;
5403;SDS011;2725;51.054;6.948;2022-09-04T07:25:06;2.4;;;1.9;;
5403;SDS011;2725;51.054;6.948;2022-09-04T07:30:09;2.4;;;1.9;;
5403;SDS011;2725;51.054;6.948;2022-09-04T07:35:43;3.0;;;2.2;;
5403;SDS011;2725;51.054;6.948;2022-09-04T07:40:04;3.0;;;2.2;;
5403;SDS011;2725;51.054;6.948;2022-09-04T07:45:36;3.6;;;2.6;;
5403;SDS011;2725;51.054;6.948;2022-09-04T07:50:08;3.6;;;2.6;;
5403;SDS011;2725;51.054;6.948;2022-09-04T07:55:05;2.9;;;2.2;;
5403;SDS011;2725;51.054;6.948;2022-09-04T08:00:04;2.9;;;2.2;;
5403;SDS011;2725;51.054;6.948;2022-09-04T08:05:06;2.9;;;2.1;;
5403;SDS011;2725;51.054;6.948;2022-09-04T08:10:12;2.9;;;2.1;;
5403;SDS011;2725;51.054;6.948;2022-09-04T08:15:16;2.4;;;2.0;;
5403;SDS011;2725;51.054;6.948;2022-09-04T08:25:54;2.4;;;2.0;;
5403;SDS011;2725;51.054;6.948;2022-09-04T08:30:04;2.4;;;2.0;;
5403;SDS011;2725;51.054;6.948;2022-09-04T08:35:04;2.1;;;1.9;;
5403;SDS011;2725;51.054;6.948;2022-09-04T08:45:39;2.1;;;1.9;;
5403;SDS011;2725;51.054;6.948;2022-09-04T08:50:07;2.1;;;1.9;;
5403;SDS011;2725;51.054;6.948;2022-09-04T09:00:06;2.9;;;1.5;;
5403;SDS011;2725;51.054;6.948;2022-09-04T09:05:08;3.1;;;1.4;;
5403;SDS011;2725;51.054;6.948;2022-09-04T09:10:23;3.1;;;1.4;;
5403;SDS011;2725;51.054;6.948;2022-09-04T09:16:15;1.5;;;1.3;;
5403;SDS011;2725;51.054;6.948;2022-09-04T09:20:23;1.5;;;1.3;;
5403;SDS011;2725;51.054;6.948;2022-09-04T09:25:18;2.1;;;1.4;;
5403;SDS011;2725;51.054;6.948;2022-09-04T09:30:04;2.1;;;1.4;;
5403;SDS011;2725;51.054;6.948;2022-09-04T09:35:09;1.3;;;1.2;;
5403;SDS011;2725;51.054;6.948;2022-09-04T09:40:08;1.3;;;1.2;;
5403;SDS011;2725;51.054;6.948;2022-09-04T09:50:04;1.3;;;1.2;;
5403;SDS011;2725;51.054;6.948;2022-09-04T09:55:09;1.7;;;1.2;;
5403;SDS011;2725;51.054;6.948;2022-09-04T10:00:17;1.7;;;1.2;;
5403;SDS011;2725;51.054;6.948;2022-09-04T10:05:12;1.3;;;1.2;;
5403;SDS011;2725;51.054;6.948;2022-09-04T10:10:07;1.3;;;1.2;;
5403;SDS011;2725;51.054;6.948;2022-09-04T10:15:14;1.7;;;1.4;;
5403;SDS011;2725;51.054;6.948;2022-09-04T10:25:31;1.7;;;1.4;;
5403;SDS011;2725;51.054;6.948;2022-09-04T10:30:05;1.7;;;1.4;;
5403;SDS011;2725;51.054;6.948;2022-09-04T10:35:07;1.3;;;1.1;;
5403;SDS011;2725;51.054;6.948;2022-09-04T10:41:12;1.3;;;1.1;;
5403;SDS011;2725;51.054;6.948;2022-09-04T10:45:05;1.4;;;1.1;;
5403;SDS011;2725;51.054;6.948;2022-09-04T10:50:20;1.4;;;1.1;;
5403;SDS011;2725;51.054;6.948;2022-09-04T10:55:10;1.6;;;1.2;;
5403;SDS011;2725;51.054;6.948;2022-09-04T11:00:18;1.6;;;1.2;;
5403;SDS011;2725;51.054;6.948;2022-09-04T11:10:07;1.8;;;1.1;;
5403;SDS011;2725;51.054;6.948;2022-09-04T11:25:37;1.9;;;1.2;;
5403;SDS011;2725;51.054;6.948;2022-09-04T11:30:04;1.9;;;1.2;;
5403;SDS011;2725;51.054;6.948;2022-09-04T11:35:19;2.3;;;1.5;;
5403;SDS011;2725;51.054;6.948;2022-09-04T11:45:23;2.3;;;1.5;;
5403;SDS011;2725;51.054;6.948;2022-09-04T11:50:13;2.3;;;1.5;;
5403;SDS011;2725;51.054;6.948;2022-09-04T11:55:19;1.7;;;1.3;;
5403;SDS011;2725;51.054;6.948;2022-09-04T12:00:07;1.7;;;1.3;;
5403;SDS011;2725;51.054;6.948;2022-09-04T12:05:12;1.6;;;1.3;;
5403;SDS011;2725;51.054;6.948;2022-09-04T12:15:06;1.1;;;1.0;;
5403;SDS011;2725;51.054;6.948;2022-09-04T12:20:07;1.1;;;1.0;;
5403;SDS011;2725;51.054;6.948;2022-09-04T12:25:08;1.2;;;1.1;;
5403;SDS011;2725;51.054;6.948;2022-09-04T12:30:03;1.2;;;1.1;;
5403;SDS011;2725;51.054;6.948;2022-09-04T12:35:09;1.2;;;1.1;;
5403;SDS011;2725;51.054;6.948;2022-09-04T12:40:25;1.2;;;1.1;;
5403;SDS011;2725;51.054;6.948;2022-09-04T12:45:08;2.1;;;1.1;;
5403;SDS011;2725;51.054;6.948;2022-09-04T12:50:08;2.1;;;1.1;;
5403;SDS011;2725;51.054;6.948;2022-09-04T12:55:12;1.5;;;1.2;;
5403;SDS011;2725;51.054;6.948;2022-09-04T13:00:09;1.5;;;1.2;;
5403;SDS011;2725;51.054;6.948;2022-09-04T13:05:14;1.2;;;1.0;;
5403;SDS011;2725;51.054;6.948;2022-09-04T13:10:07;1.2;;;1.0;;
5403;SDS011;2725;51.054;6.948;2022-09-04T13:15:48;1.2;;;1.0;;
5403;SDS011;2725;51.054;6.948;2022-09-04T13:20:06;1.2;;;1.0;;
5403;SDS011;2725;51.054;6.948;2022-09-04T13:25:05;1.9;;;1.1;;
5403;SDS011;2725;51.054;6.948;2022-09-04T13:30:04;1.9;;;1.1;;
5403;SDS011;2725;51.054;6.948;2022-09-04T13:35:05;1.9;;;1.1;;
5403;SDS011;2725;51.054;6.948;2022-09-04T13:40:08;1.9;;;1.1;;
5403;SDS011;2725;51.054;6.948;2022-09-04T13:45:04;1.4;;;1.0;;
5403;SDS011;2725;51.054;6.948;2022-09-04T13:50:09;1.4;;;1.0;;
5403;SDS011;2725;51.054;6.948;2022-09-04T13:55:05;1.1;;;1.0;;
5403;SDS011;2725;51.054;6.948;2022-09-04T14:00:02;1.1;;;1.0;;
5403;SDS011;2725;51.054;6.948;2022-09-04T14:05:05;1.1;;;1.0;;
5403;SDS011;2725;51.054;6.948;2022-09-04T14:10:03;1.1;;;1.0;;
5403;SDS011;2725;51.054;6.948;2022-09-04T14:15:21;1.1;;;1.0;;
5403;SDS011;2725;51.054;6.948;2022-09-04T14:20:02;1.1;;;1.0;;
5403;SDS011;2725;51.054;6.948;2022-09-04T14:25:05;2.1;;;1.0;;
5403;SDS011;2725;51.054;6.948;2022-09-04T14:30:18;2.1;;;1.0;;
5403;SDS011;2725;51.054;6.948;2022-09-04T14:35:13;2.1;;;1.0;;
5403;SDS011;2725;51.054;6.948;2022-09-04T14:40:08;2.1;;;1.0;;
5403;SDS011;2725;51.054;6.948;2022-09-04T14:45:09;1.9;;;1.1;;
5403;SDS011;2725;51.054;6.948;2022-09-04T14:50:02;1.9;;;1.1;;
5403;SDS011;2725;51.054;6.948;2022-09-04T14:55:02;1.9;;;1.1;;
5403;SDS011;2725;51.054;6.948;2022-09-04T15:00:17;1.9;;;1.1;;
5403;SDS011;2725;51.054;6.948;2022-09-04T15:06:11;1.2;;;1.0;;
5403;SDS011;2725;51.054;6.948;2022-09-04T15:10:04;1.2;;;1.0;;
5403;SDS011;2725;51.054;6.948;2022-09-04T15:15:12;1.3;;;1.0;;
5403;SDS011;2725;51.054;6.948;2022-09-04T15:20:03;1.3;;;1.0;;
5403;SDS011;2725;51.054;6.948;2022-09-04T15:25:04;1.3;;;1.0;;
5403;SDS011;2725;51.054;6.948;2022-09-04T15:30:03;1.3;;;1.0;;
5403;SDS011;2725;51.054;6.948;2022-09-04T15:35:33;1.8;;;1.0;;
5403;SDS011;2725;51.054;6.948;2022-09-04T15:40:06;1.8;;;1.0;;
5403;SDS011;2725;51.054;6.948;2022-09-04T15:45:12;1.9;;;1.0;;
5403;SDS011;2725;51.054;6.948;2022-09-04T15:50:03;1.9;;;1.0;;
5403;SDS011;2725;51.054;6.948;2022-09-04T15:55:04;1.6;;;1.2;;
5403;SDS011;2725;51.054;6.948;2022-09-04T16:00:10;1.6;;;1.2;;
5403;SDS011;2725;51.054;6.948;2022-09-04T16:05:04;1.9;;;1.2;;
5403;SDS011;2725;51.054;6.948;2022-09-04T16:10:07;1.9;;;1.2;;
5403;SDS011;2725;51.054;6.948;2022-09-04T16:15:02;1.9;;;1.2;;
5403;SDS011;2725;51.054;6.948;2022-09-04T16:20:04;1.9;;;1.2;;
5403;SDS011;2725;51.054;6.948;2022-09-04T16:25:09;1.5;;;1.2;;
5403;SDS011;2725;51.054;6.948;2022-09-04T16:30:02;1.5;;;1.2;;
5403;SDS011;2725;51.054;6.948;2022-09-04T16:35:05;1.6;;;1.3;;
5403;SDS011;2725;51.054;6.948;2022-09-04T16:40:03;1.6;;;1.3;;
5403;SDS011;2725;51.054;6.948;2022-09-04T16:45:04;1.8;;;1.3;;
5403;SDS011;2725;51.054;6.948;2022-09-04T16:50:14;1.8;;;1.3;;
5403;SDS011;2725;51.054;6.948;2022-09-04T16:55:06;2.2;;;1.3;;
5403;SDS011;2725;51.054;6.948;2022-09-04T17:00:06;2.2;;;1.3;;
5403;SDS011;2725;51.054;6.948;2022-09-04T17:05:07;1.6;;;1.3;;
5403;SDS011;2725;51.054;6.948;2022-09-04T17:10:03;1.6;;;1.3;;
5403;SDS011;2725;51.054;6.948;2022-09-04T17:15:14;1.6;;;1.3;;
5403;SDS011;2725;51.054;6.948;2022-09-04T17:20:05;1.6;;;1.3;;
5403;SDS011;2725;51.054;6.948;2022-09-04T17:25:06;1.7;;;1.3;;
5403;SDS011;2725;51.054;6.948;2022-09-04T17:30:03;1.7;;;1.3;;
5403;SDS011;2725;51.054;6.948;2022-09-04T17:36:08;1.3;;;1.1;;
5403;SDS011;2725;51.054;6.948;2022-09-04T17:40:04;1.3;;;1.1;;
5403;SDS011;2725;51.054;6.948;2022-09-04T17:45:11;1.2;;;1.1;;
5403;SDS011;2725;51.054;6.948;2022-09-04T17:50:03;1.2;;;1.1;;
5403;SDS011;2725;51.054;6.948;2022-09-04T17:55:06;2.5;;;1.2;;
5403;SDS011;2725;51.054;6.948;2022-09-04T18:00:04;2.5;;;1.2;;
5403;SDS011;2725;51.054;6.948;2022-09-04T18:05:11;2.5;;;1.2;;
5403;SDS011;2725;51.054;6.948;2022-09-04T18:10:16;2.5;;;1.2;;
5403;SDS011;2725;51.054;6.948;2022-09-04T18:15:20;1.4;;;1.1;;
5403;SDS011;2725;51.054;6.948;2022-09-04T18:20:35;1.4;;;1.1;;
5403;SDS011;2725;51.054;6.948;2022-09-04T18:25:19;1.4;;;1.1;;
5403;SDS011;2725;51.054;6.948;2022-09-04T18:30:04;1.4;;;1.1;;
5403;SDS011;2725;51.054;6.948;2022-09-04T18:35:03;1.3;;;1.1;;
5403;SDS011;2725;51.054;6.948;2022-09-04T18:40:05;1.3;;;1.1;;
5403;SDS011;2725;51.054;6.948;2022-09-04T18:45:15;1.3;;;1.2;;
5403;SDS011;2725;51.054;6.948;2022-09-04T18:50:02;1.3;;;1.2;;
5403;SDS011;2725;51.054;6.948;2022-09-04T18:55:03;1.9;;;1.3;;
5403;SDS011;2725;51.054;6.948;2022-09-04T19:00:05;1.9;;;1.3;;
5403;SDS011;2725;51.054;6.948;2022-09-04T19:05:09;1.4;;;1.3;;
5403;SDS011;2725;51.054;6.948;2022-09-04T19:10:35;1.4;;;1.3;;
5403;SDS011;2725;51.054;6.948;2022-09-04T19:15:02;1.6;;;1.3;;
5403;SDS011;2725;51.054;6.948;2022-09-04T19:20:03;1.6;;;1.3;;
5403;SDS011;2725;51.054;6.948;2022-09-04T19:25:34;1.6;;;1.2;;
5403;SDS011;2725;51.054;6.948;2022-09-04T19:30:03;1.6;;;1.2;;
5403;SDS011;2725;51.054;6.948;2022-09-04T19:35:06;2.5;;;1.4;;
5403;SDS011;2725;51.054;6.948;2022-09-04T19:40:02;2.5;;;1.4;;
5403;SDS011;2725;51.054;6.948;2022-09-04T19:45:02;2.2;;;1.8;;
5403;SDS011;2725;51.054;6.948;2022-09-04T19:50:35;2.2;;;1.8;;
5403;SDS011;2725;51.054;6.948;2022-09-04T19:55:04;2.2;;;1.8;;
5403;SDS011;2725;51.054;6.948;2022-09-04T20:00:06;2.2;;;1.8;;
5403;SDS011;2725;51.054;6.948;2022-09-04T20:05:02;2.7;;;1.8;;
5403;SDS011;2725;51.054;6.948;2022-09-04T20:10:02;2.7;;;1.8;;
5403;SDS011;2725;51.054;6.948;2022-09-04T20:15:06;2.8;;;2.0;;
5403;SDS011;2725;51.054;6.948;2022-09-04T20:20:02;2.8;;;2.0;;
5403;SDS011;2725;51.054;6.948;2022-09-04T20:25:10;2.6;;;2.1;;
5403;SDS011;2725;51.054;6.948;2022-09-04T20:30:06;2.6;;;2.1;;
5403;SDS011;2725;51.054;6.948;2022-09-04T20:35:10;3.1;;;2.3;;
5403;SDS011;2725;51.054;6.948;2022-09-04T20:40:05;3.1;;;2.3;;
5403;SDS011;2725;51.054;6.948;2022-09-04T20:45:03;2.6;;;2.3;;
5403;SDS011;2725;51.054;6.948;2022-09-04T20:50:34;2.6;;;2.3;;
5403;SDS011;2725;51.054;6.948;2022-09-04T20:55:04;2.9;;;2.3;;
5403;SDS011;2725;51.054;6.948;2022-09-04T21:00:03;2.9;;;2.3;;
5403;SDS011;2725;51.054;6.948;2022-09-04T21:10:07;2.9;;;2.3;;
5403;SDS011;2725;51.054;6.948;2022-09-04T21:20:06;3.1;;;2.4;;
5403;SDS011;2725;51.054;6.948;2022-09-04T21:25:09;3.2;;;2.4;;
5403;SDS011;2725;51.054;6.948;2022-09-04T21:30:04;3.2;;;2.4;;
5403;SDS011;2725;51.054;6.948;2022-09-04T21:35:11;3.2;;;2.4;;
5403;SDS011;2725;51.054;6.948;2022-09-04T21:40:06;3.2;;;2.4;;
5403;SDS011;2725;51.054;6.948;2022-09-04T21:45:07;3.2;;;2.5;;
5403;SDS011;2725;51.054;6.948;2022-09-04T21:55:39;2.8;;;2.4;;
5403;SDS011;2725;51.054;6.948;2022-09-04T22:00:10;2.8;;;2.4;;
5403;SDS011;2725;51.054;6.948;2022-09-04T22:10:06;3.0;;;2.4;;
5403;SDS011;2725;51.054;6.948;2022-09-04T22:15:03;3.1;;;2.3;;
5403;SDS011;2725;51.054;6.948;2022-09-04T22:25:05;2.4;;;2.2;;
5403;SDS011;2725;51.054;6.948;2022-09-04T22:30:17;2.4;;;2.2;;
5403;SDS011;2725;51.054;6.948;2022-09-04T22:35:07;2.4;;;2.2;;
5403;SDS011;2725;51.054;6.948;2022-09-04T22:40:05;2.4;;;2.2;;
5403;SDS011;2725;51.054;6.948;2022-09-04T22:55:09;2.6;;;2.1;;
5403;SDS011;2725;51.054;6.948;2022-09-04T23:00:10;2.6;;;2.1;;
5403;SDS011;2725;51.054;6.948;2022-09-04T23:05:17;2.1;;;1.9;;
5403;SDS011;2725;51.054;6.948;2022-09-04T23:10:09;2.1;;;1.9;;
5403;SDS011;2725;51.054;6.948;2022-09-04T23:20:05;2.0;;;1.8;;
5403;SDS011;2725;51.054;6.948;2022-09-04T23:30:06;2.0;;;1.8;;
5403;SDS011;2725;51.054;6.948;2022-09-04T23:35:10;2.9;;;2.0;;
5403;SDS011;2725;51.054;6.948;2022-09-04T23:40:15;2.9;;;2.0;;
5403;SDS011;2725;51.054;6.948;2022-09-04T23:45:12;2.1;;;1.9;;
5403;SDS011;2725;51.054;6.948;2022-09-04T23:50:19;2.1;;;1.9;;
5403;SDS011;2725;51.054;6.948;2022-09-04T23:55:04;1.9;;;1.7;;
